• Join FlightAware (Why Join?)
  • Login
  • US Flag 
06:37PM EDT


 

Airport Tracker/Info


-or-


 

Live Flight TrackerFlight Track Log ✈ SKW5516 ✈ 03-Jun-2013 ✈ KAUS - KSFO

Flight Track Log - Related Links

Times and Time Zones

All times are in EDT time to prevent confusion due to time zone crossing. See the SKW5516 flight status page for this flight to view local times or setup timezone preferences in your user account.

Time Position Orientation Groundspeed Altitude Reporting Facility
EDT Latitude Longitude Course Direction KTS MPH feet Rate Location/Type
09:12AM 30.1408 -97.7483 291° West 238 274 4,600  Level Houston Center
09:13AM 30.4514 -97.7662 293° West  Level FlightAware Approximate
09:13AM 30.1869 -97.8164 308° West 227 261 7,200  Level Houston Center
09:14AM 30.4965 -97.8903 293° West  Level FlightAware Approximate
09:14AM 30.2256 -97.8814 305° West 238 274 9,800  Level Houston Center
09:15AM 30.5387 -98.0157 291° West  Level FlightAware Approximate
09:15AM 30.2689 -97.9481 307° West 242 278 11,400  Level Houston Center
09:16AM 30.5806 -98.1414 291° West  Level FlightAware Approximate
09:16AM 30.3197 -98.0144 312° West 277 319 13,200  Level Houston Center
09:17AM 30.6224 -98.2671 291° West  Level FlightAware Approximate
09:17AM 30.3833 -98.0669 325° Northwest 285 328 15,000  Level Houston Center
09:18AM 30.4511 -98.1231 324° Northwest 295 339 16,700 1,680 Climbing Houston Center
09:19AM 30.5214 -98.1808 325° Northwest 304 350 18,500 1,500 Climbing Houston Center
09:20AM 30.5922 -98.2403 324° Northwest 309 356 19,800 1,320 Climbing Houston Center
09:21AM 30.6656 -98.3028 324° Northwest 319 367 21,300 1,620 Climbing Houston Center
09:22AM 30.7533 -98.3758 324° Northwest 326 375 23,200 1,500 Climbing Houston Center
09:23AM 30.8283 -98.4386 324° Northwest 327 376 24,500 1,260 Climbing Houston Center
09:24AM 30.9056 -98.5044 324° Northwest 337 388 25,900 1,200 Climbing Houston Center
09:25AM 30.9844 -98.5692 325° Northwest 342 394 27,000 960 Climbing Houston Center
09:26AM 31.0650 -98.6392 323° Northwest 354 407 27,900 1,140 Climbing Houston Center
09:27AM 31.1500 -98.7114 324° Northwest 368 423 29,400 1,020 Climbing Houston Center
09:28AM 31.2328 -98.7811 324° Northwest 364 419 30,100 540 Climbing Houston Center
09:29AM 31.3186 -98.8561 323° Northwest 376 433 30,600 720 Climbing Houston Center
09:30AM 31.4239 -98.9444 324° Northwest 391 450 31,600 900 Climbing Houston Center
09:31AM 31.5144 -99.0214 324° Northwest 395 455 32,500 840 Climbing Houston Center
09:32AM 31.6039 -99.0981 324° Northwest 394 453 33,400 780 Climbing Houston Center
09:33AM 31.6481 -99.1386 322° Northwest 387 445 33,800 720 Climbing Fort Worth Center
09:34AM 31.7389 -99.2161 324° Northwest 387 445 34,600 780 Climbing Fort Worth Center
09:35AM 31.8128 -99.3056 314° West 387 445 35,400 660 Climbing Fort Worth Center
09:36AM 31.8867 -99.3975 313° West 387 445 36,000 300 Climbing Fort Worth Center
09:37AM 31.9622 -99.4897 314° West 382 440 36,000  Level Fort Worth Center
09:38AM 32.0358 -99.5847 312° West 389 448 36,000  Level Fort Worth Center
09:39AM 32.1136 -99.6797 314° West 395 455 36,000  Level Fort Worth Center
09:40AM 32.1889 -99.7797 312° West 400 460 36,000  Level Fort Worth Center
09:41AM 32.2642 -99.8750 313° West 400 460 36,000  Level Fort Worth Center
09:42AM 32.3397 -99.9731 312° West 395 455 36,000  Level Fort Worth Center
09:43AM 32.4128 -100.0686 312° West 395 455 36,000  Level Fort Worth Center
09:44AM 32.4939 -100.1744 312° West 395 455 36,000  Level Fort Worth Center
09:45AM 32.5669 -100.2678 313° West 395 455 36,000  Level Fort Worth Center
09:46AM 32.6400 -100.3592 314° West 390 449 36,000  Level Fort Worth Center
09:47AM 32.7089 -100.4478 313° West 384 442 36,000  Level Fort Worth Center
09:48AM 32.7797 -100.5367 313° West 379 436 36,000  Level Fort Worth Center
09:49AM 32.8506 -100.6281 313° West 379 436 36,000  Level Fort Worth Center
09:50AM 32.9211 -100.7197 313° West 373 429 36,000  Level Fort Worth Center
09:51AM 32.9917 -100.8139 312° West 373 429 36,000  Level Fort Worth Center
09:52AM 33.0622 -100.9058 312° West 373 429 36,000  Level Fort Worth Center
09:53AM 33.1186 -100.9800 312° West 373 429 36,000  Level Fort Worth Center
09:54AM 33.2031 -101.0878 313° West 373 429 36,000  Level Fort Worth Center
09:55AM 33.2675 -101.1722 312° West 373 429 36,000  Level Fort Worth Center
09:56AM 33.3478 -101.2778 312° West 379 436 36,000  Level Fort Worth Center
09:57AM 33.4119 -101.3625 312° West 374 430 36,000  Level Fort Worth Center
09:58AM 33.4900 -101.4683 312° West 380 437 36,000  Level Fort Worth Center
09:59AM 33.5539 -101.5533 312° West 380 437 36,000  Level Fort Worth Center
10:00AM 33.6358 -101.6644 312° West 385 443 36,000  Level Fort Worth Center
10:01AM 33.7056 -101.7578 312° West 390 449 36,000  Level Fort Worth Center
10:02AM 33.7694 -101.8383 314° West 395 455 36,000 120 Level Fort Worth Center
10:03AM 33.8508 -101.9550 310° West 394 453 36,300 360 Climbing Fort Worth Center
10:04AM 33.9125 -102.0408 311° West 384 442 36,800 420 Climbing Fort Worth Center
10:06AM 34.0269 -102.1964 312° West 382 440 37,500 420 Climbing Albuquerque Center
10:07AM 34.1097 -102.3069 312° West 375 432 38,000 240 Climbing Albuquerque Center
10:08AM 34.1789 -102.4025 311° West 375 432 38,000  Level Albuquerque Center
10:09AM 34.2450 -102.4936 311° West 377 434 38,000  Level Albuquerque Center
10:10AM 34.3153 -102.5900 311° West 380 437 38,000  Level Albuquerque Center
10:11AM 34.3839 -102.6842 311° West 375 432 38,000  Level Albuquerque Center
10:12AM 34.4522 -102.7792 311° West 374 430 38,000  Level Albuquerque Center
10:13AM 34.5172 -102.8825 307° West 362 417 38,000  Level Albuquerque Center
10:14AM 34.5736 -102.9883 303° West 366 421 38,000  Level Albuquerque Center
10:15AM 34.6367 -103.1117 302° West 367 422 38,000  Level Albuquerque Center
10:16AM 34.6925 -103.2181 303° West 368 423 38,000  Level Albuquerque Center
10:17AM 34.7475 -103.3258 302° West 371 427 38,000  Level Albuquerque Center
10:18AM 34.8031 -103.4319 303° West 370 426 38,000  Level Albuquerque Center
10:19AM 34.8583 -103.5397 302° West 372 428 38,000  Level Albuquerque Center
10:20AM 34.9133 -103.6472 302° West 371 427 38,000  Level Albuquerque Center
10:21AM 34.9689 -103.7556 302° West 373 429 38,000  Level Albuquerque Center
10:22AM 35.0256 -103.8656 302° West 376 433 38,000  Level Albuquerque Center
10:23AM 35.0861 -103.9850 302° West 381 438 38,000  Level Albuquerque Center
10:24AM 35.1436 -104.0972 302° West 387 445 38,000  Level Albuquerque Center
10:25AM 35.1992 -104.2078 302° West 383 441 38,000  Level Albuquerque Center
10:26AM 35.2550 -104.3197 301° West 386 444 38,000  Level Albuquerque Center
10:27AM 35.3111 -104.4331 301° West 388 447 38,000  Level Albuquerque Center
10:28AM 35.3689 -104.5511 301° West 387 445 38,000  Level Albuquerque Center
10:29AM 35.4258 -104.6656 301° West 389 448 38,000  Level Albuquerque Center
10:30AM 35.4914 -104.7983 301° West 387 445 38,000  Level Albuquerque Center
10:31AM 35.5478 -104.9122 301° West 387 445 38,000  Level Albuquerque Center
10:32AM 35.6036 -105.0264 301° West 386 444 38,000  Level Albuquerque Center
10:33AM 35.6581 -105.1381 301° West 380 437 38,000  Level Albuquerque Center
10:34AM 35.7047 -105.2547 296° West 378 435 38,000  Level Albuquerque Center
10:35AM 35.7489 -105.3731 295° West 377 434 38,000  Level Albuquerque Center
10:37AM 35.7933 -105.4894 295° West 374 430 38,000  Level Albuquerque Center
10:38AM 35.8389 -105.6058 296° West 373 429 38,000  Level Albuquerque Center
10:39AM 35.8817 -105.7206 295° West 371 427 38,000  Level Albuquerque Center
10:40AM 35.9256 -105.8353 295° West 370 426 38,000  Level Albuquerque Center
10:41AM 35.9767 -105.9717 295° West 367 422 38,000  Level Albuquerque Center
10:42AM 36.0197 -106.0856 295° West 367 422 38,000  Level Albuquerque Center
10:43AM 36.0631 -106.1994 295° West 366 421 38,000  Level Albuquerque Center
10:44AM 36.1058 -106.3172 294° West 374 430 38,000  Level Albuquerque Center
10:45AM 36.1494 -106.4342 295° West 375 432 38,000  Level Albuquerque Center
10:46AM 36.1975 -106.5633 295° West 377 434 38,000  Level Albuquerque Center
10:47AM 36.2461 -106.6975 294° West 380 437 38,000  Level Albuquerque Center
10:48AM 36.2894 -106.8131 295° West 384 442 38,000  Level Albuquerque Center
10:49AM 36.3325 -106.9292 295° West 386 444 38,000  Level Albuquerque Center
10:50AM 36.3808 -107.0678 293° West 390 449 38,000  Level Albuquerque Center
10:50AM 36.4025 -107.1253 295° West 391 450 38,000  Level Denver Center
10:51AM 36.4531 -107.2633 295° West 393 452 38,000  Level Denver Center
10:52AM 36.4953 -107.3808 294° West 391 450 38,000  Level Denver Center
10:54AM 36.5442 -107.5192 294° West 393 452 38,000  Level Denver Center
10:55AM 36.5861 -107.6358 294° West 390 449 38,000  Level Denver Center
10:56AM 36.6344 -107.7731 294° West 389 448 38,000  Level Denver Center
10:57AM 36.6753 -107.8900 294° West 387 445 38,000  Level Denver Center
10:58AM 36.7242 -108.0269 294° West 387 445 38,000  Level Denver Center
10:59AM 36.7650 -108.1425 294° West 385 443 38,000  Level Denver Center
11:00AM 36.8125 -108.2769 294° West 381 438 38,000  Level Denver Center
11:01AM 36.8533 -108.3933 294° West 381 438 38,000  Level Denver Center
11:02AM 36.9003 -108.5264 294° West 379 436 38,000  Level Denver Center
11:03AM 36.9400 -108.6403 294° West 375 432 38,000  Level Denver Center
11:04AM 36.9869 -108.7733 294° West 377 434 38,000  Level Denver Center
11:05AM 37.0272 -108.8892 294° West 380 437 38,000  Level Denver Center
11:06AM 37.0731 -109.0233 293° West 378 435 38,000  Level Denver Center
11:07AM 37.1122 -109.1375 293° West 376 433 38,000  Level Denver Center
11:08AM 37.1578 -109.2708 293° West 374 430 38,000  Level Denver Center
11:09AM 37.1967 -109.3833 293° West 370 426 38,000  Level Denver Center
11:10AM 37.2350 -109.4967 293° West 370 426 38,000  Level Denver Center
11:11AM 37.2789 -109.6264 293° West 363 418 38,000  Level Denver Center
11:12AM 37.3167 -109.7375 293° West 361 415 38,000  Level Denver Center
11:13AM 37.3600 -109.8647 293° West 357 411 38,000  Level Denver Center
11:14AM 37.3958 -109.9733 293° West 353 406 38,000  Level Denver Center
11:15AM 37.4375 -110.0975 293° West 347 399 38,000  Level Denver Center
11:16AM 37.4744 -110.2086 293° West 344 396 38,000  Level Denver Center
11:17AM 37.5144 -110.3294 293° West 347 399 38,000  Level Denver Center
11:18AM 37.5494 -110.4386 292° West 352 405 38,000  Level Denver Center
11:19AM 37.5872 -110.5522 293° West 363 418 38,000  Level Denver Center
11:20AM 37.6364 -110.7008 293° West 382 440 38,000  Level Denver Center
11:21AM 37.6775 -110.8283 292° West 392 451 38,000  Level Denver Center
11:22AM 37.7197 -110.9569 293° West 396 456 38,000  Level Denver Center
11:24AM 37.7525 -111.0597 292° West 396 456 38,000  Level Denver Center
11:24AM 37.7764 -111.1364 292° West 396 456 38,000  Level Salt Lake Center
11:25AM 37.8186 -111.2661 292° West 399 459 38,000  Level Salt Lake Center
11:26AM 37.8592 -111.3939 292° West 395 455 38,000  Level Salt Lake Center
11:27AM 37.9014 -111.5236 292° West 397 457 38,000  Level Salt Lake Center
11:28AM 37.9403 -111.6508 291° West 391 450 38,000  Level Salt Lake Center
11:29AM 37.9800 -111.7786 292° West 390 449 38,000  Level Salt Lake Center
11:30AM 38.0286 -111.9342 292° West 395 455 38,000  Level Salt Lake Center
11:31AM 38.0703 -112.0619 293° West 393 452 38,000  Level Salt Lake Center
11:32AM 38.1103 -112.1903 292° West 394 453 38,000  Level Salt Lake Center
11:33AM 38.1314 -112.3236 281° West 392 451 38,000  Level Salt Lake Center
11:34AM 38.1303 -112.4633 269° West 397 457 38,000  Level Salt Lake Center
11:35AM 38.1303 -112.6303 270° West 396 456 38,000  Level Salt Lake Center
11:36AM 38.1289 -112.7686 269° West 395 455 38,000  Level Salt Lake Center
11:37AM 38.1289 -112.9083 270° West 399 459 38,000  Level Salt Lake Center
11:38AM 38.1269 -113.0478 269° West 400 460 38,000  Level Salt Lake Center
11:39AM 38.1269 -113.1864 270° West 398 458 38,000  Level Salt Lake Center
11:40AM 38.1253 -113.3522 269° West 395 455 38,000  Level Salt Lake Center
11:41AM 38.1242 -113.4897 269° West 393 452 38,000  Level Salt Lake Center
11:42AM 38.1225 -113.6281 269° West 393 452 38,000  Level Salt Lake Center
11:43AM 38.1208 -113.7661 269° West 393 452 38,000  Level Salt Lake Center
11:44AM 38.1192 -113.9042 269° West 393 452 38,000  Level Salt Lake Center
11:46AM 38.1172 -114.0406 269° West 390 449 38,000  Level Salt Lake Center
11:47AM 38.1156 -114.2064 269° West 392 451 38,000  Level Salt Lake Center
11:48AM 38.1122 -114.3450 268° West 393 452 38,000  Level Salt Lake Center
11:49AM 38.1100 -114.4831 269° West 392 451 38,000  Level Salt Lake Center
11:50AM 38.1069 -114.6211 268° West 392 451 38,000  Level Salt Lake Center
11:51AM 38.1042 -114.7597 269° West 393 452 38,000  Level Salt Lake Center
11:52AM 38.1006 -114.9272 268° West 396 456 38,000  Level Salt Lake Center
11:53AM 38.0986 -115.0650 269° West 393 452 38,000  Level Salt Lake Center
11:54AM 38.0939 -115.2053 268° West 395 455 38,000  Level Salt Lake Center
11:55AM 38.0906 -115.3489 268° West 393 452 38,000  Level Salt Lake Center
11:56AM 38.0878 -115.4886 269° West 395 455 38,000  Level Salt Lake Center
11:57AM 38.0831 -115.6283 268° West 394 453 38,000  Level Salt Lake Center
11:58AM 38.0789 -115.7678 268° West 396 456 38,000  Level Salt Lake Center
11:59AM 38.0739 -115.9081 267° West 397 457 38,000  Level Salt Lake Center
12:00PM 38.0694 -116.0764 268° West 397 457 38,000  Level Salt Lake Center
12:01PM 38.0644 -116.2181 267° West 402 463 38,000  Level Salt Lake Center
12:02PM 38.0603 -116.3597 268° West 402 463 38,000  Level Salt Lake Center
12:03PM 38.0550 -116.5025 267° West 403 464 38,000  Level Salt Lake Center
12:04PM 38.0497 -116.6447 267° West 403 464 38,000  Level Salt Lake Center
12:05PM 38.0442 -116.7867 267° West 402 463 38,000  Level Salt Lake Center
12:06PM 38.0386 -116.9517 268° West 407 468 38,000  Level Salt Lake Center
12:07PM 38.0322 -117.1056 267° West 407 468 38,000  Level Salt Lake Center
12:08PM 38.0258 -117.2539 267° West 410 472 38,000  Level Oakland Center
12:09PM 38.0197 -117.4014 267° West 412 474 38,000  Level Oakland Center
12:10PM 38.0136 -117.5464 267° West 410 472 38,000  Level Oakland Center
12:11PM 38.0058 -117.7203 267° West 411 473 38,000  Level Oakland Center
12:12PM 37.9953 -117.8653 265° West 412 474 38,000  Level Oakland Center
12:14PM 37.9786 -118.0086 262° West 413 475 38,000  Level Oakland Center
12:15PM 37.9636 -118.1544 263° West 416 479 38,000  Level Oakland Center
12:16PM 37.9475 -118.2992 262° West 416 479 38,000  Level Oakland Center
12:17PM 37.9308 -118.4433 262° West 415 478 38,000  Level Oakland Center
12:18PM 37.9158 -118.5889 263° West 414 476 38,000  Level Oakland Center
12:19PM 37.9017 -118.7356 263° West 419 482 38,000  Level Oakland Center
12:20PM 37.8833 -118.8808 261° West 418 481 38,000  Level Oakland Center
12:21PM 37.8650 -119.0417 262° West 419 482 38,000  Level Oakland Center
12:22PM 37.8469 -119.1889 261° West 413 475 38,000  Level Oakland Center
12:23PM 37.8308 -119.3269 262° West 409 471 38,000  Level Oakland Center
12:24PM 37.8144 -119.4681 262° West 407 468 38,000 -600 Level Oakland Center
12:25PM 37.7978 -119.6072 261° West 403 464 36,800 -1,320 Descending Oakland Center
12:26PM 37.7817 -119.7500 262° West 408 470 35,300 -1,500 Descending Oakland Center
12:27PM 37.7644 -119.8922 261° West 410 472 33,800 -1,620 Descending Oakland Center
12:28PM 37.7433 -120.0636 261° West 410 472 32,000 -900 Descending Oakland Center
12:29PM 37.7261 -120.2022 261° West 403 464 32,000 -480 Level Oakland Center
12:30PM 37.7078 -120.3406 261° West 399 459 31,100 -1,380 Descending Oakland Center
12:31PM 37.6892 -120.4869 261° West 417 480 29,300 -2,280 Descending Oakland Center
12:32PM 37.6703 -120.6311 261° West 415 478 26,500 -2,580 Descending Oakland Center
12:33PM 37.6517 -120.7717 261° West 409 471 24,100 -2,580 Descending Oakland Center
12:34PM 37.6333 -120.8833 258° West 396 456 21,900 -2,280 Descending Northern Cal TRACON
12:35PM 37.6167 -121.0167 261° West 385 443 20,000 -960 Descending Northern Cal TRACON
12:36PM 37.6000 -121.1500 261° West 354 407 20,000 -1,200 Level Northern Cal TRACON
12:37PM 37.6000 -121.2667 270° West 373 429 17,800 -2,640 Descending Northern Cal TRACON
12:38PM 37.5833 -121.4000 261° West 354 407 14,800 -2,880 Descending Northern Cal TRACON
12:39PM 37.5667 -121.5167 260° West 333 383 11,800 -1,920 Descending Northern Cal TRACON
12:40PM 37.5500 -121.6167 258° West 303 349 11,000 -900 Descending Northern Cal TRACON
12:41PM 37.5333 -121.7000 256° West 256 295 10,100 -1,200 Descending Northern Cal TRACON
12:42PM 37.5167 -121.7833 256° West 256 295 8,800 -1,140 Descending Northern Cal TRACON
12:43PM 37.5000 -121.8667 256° West 248 285 8,000 -720 Descending Northern Cal TRACON
12:44PM 37.4833 -121.9500 256° West 250 288 7,400 -1,020 Descending Northern Cal TRACON
12:45PM 37.5167 -122.0333 297° West 263 303 6,100 -1,140 Descending Northern Cal TRACON
12:46PM 37.5333 -122.1000 288° West 228 262 5,300 -1,080 Descending Northern Cal TRACON
12:46PM 37.5453 -122.1481 287° West 233 268 4,300 -1,260 Descending Oakland Center
12:47PM 37.5686 -122.2175 293° West 225 259 3,200 -1,140 Descending Oakland Center